createdAt,value
2019-02-16T00:00:33.714Z,1018.89
2019-02-16T00:01:33.704Z,1018.86
2019-02-16T00:02:33.716Z,1018.89
2019-02-16T00:03:33.684Z,1018.89
2019-02-16T00:04:33.697Z,1018.86
2019-02-16T00:05:33.662Z,1018.88
2019-02-16T00:06:33.649Z,1018.78
2019-02-16T00:07:33.669Z,1018.77
2019-02-16T00:08:33.628Z,1018.76
2019-02-16T00:09:33.618Z,1018.76
2019-02-16T00:10:33.604Z,1018.77
2019-02-16T00:11:33.593Z,1018.76
2019-02-16T00:12:33.598Z,1018.76
2019-02-16T00:13:33.571Z,1018.68
2019-02-16T00:14:33.563Z,1018.77
2019-02-16T00:15:33.551Z,1018.71
2019-02-16T00:16:33.538Z,1018.76
2019-02-16T00:17:33.577Z,1018.76
2019-02-16T00:18:33.520Z,1018.69
2019-02-16T00:19:33.509Z,1018.75
2019-02-16T00:20:33.506Z,1018.68
2019-02-16T00:21:33.487Z,1018.67
2019-02-16T00:22:33.475Z,1018.68
2019-02-16T00:23:33.475Z,1018.71
2019-02-16T00:24:33.451Z,1018.70
2019-02-16T00:25:33.443Z,1018.70
2019-02-16T00:26:33.432Z,1018.70
2019-02-16T00:27:33.421Z,1018.67
2019-02-16T00:28:33.422Z,1018.63
2019-02-16T00:29:33.397Z,1018.59
2019-02-16T00:30:33.403Z,1018.66
2019-02-16T00:31:33.374Z,1018.61
2019-02-16T00:32:33.365Z,1018.59
2019-02-16T00:33:33.368Z,1018.54
2019-02-16T00:34:33.343Z,1018.54
2019-02-16T00:35:33.329Z,1018.53
2019-02-16T00:36:33.321Z,1018.59
2019-02-16T00:37:33.314Z,1018.55
2019-02-16T00:38:33.310Z,1018.59
2019-02-16T00:39:33.292Z,1018.56
2019-02-16T00:40:33.276Z,1018.58
2019-02-16T00:41:33.265Z,1018.57
2019-02-16T00:42:33.254Z,1018.61
2019-02-16T00:43:33.281Z,1018.57
2019-02-16T00:44:33.236Z,1018.58
2019-02-16T00:45:33.223Z,1018.61
2019-02-16T00:46:33.210Z,1018.61
2019-02-16T00:47:33.201Z,1018.62
2019-02-16T00:48:33.199Z,1018.59
2019-02-16T00:49:33.176Z,1018.52
2019-02-16T00:50:33.165Z,1018.51
2019-02-16T00:51:33.158Z,1018.53
2019-02-16T00:52:33.142Z,1018.52
2019-02-16T00:53:33.164Z,1018.52
2019-02-16T00:54:33.122Z,1018.52
2019-02-16T00:55:33.110Z,1018.48
2019-02-16T00:56:33.102Z,1018.48
2019-02-16T00:57:33.088Z,1018.50
2019-02-16T00:58:33.091Z,1018.51
2019-02-16T00:59:33.067Z,1018.55
2019-02-16T01:00:33.056Z,1018.54
2019-02-16T01:01:33.050Z,1018.50
2019-02-16T01:02:33.036Z,1018.51
2019-02-16T01:03:33.066Z,1018.51
2019-02-16T01:04:33.011Z,1018.52
2019-02-16T01:05:33.001Z,1018.52
2019-02-16T01:06:32.989Z,1018.53
2019-02-16T01:07:32.991Z,1018.51
2019-02-16T01:08:32.978Z,1018.50
2019-02-16T01:09:32.959Z,1018.53
2019-02-16T01:10:32.946Z,1018.50
2019-02-16T01:11:32.934Z,1018.53
2019-02-16T01:12:32.928Z,1018.54
2019-02-16T01:13:32.972Z,1018.51
2019-02-16T01:14:32.900Z,1018.49
2019-02-16T01:15:32.891Z,1018.49
2019-02-16T01:16:32.891Z,1018.48
2019-02-16T01:17:32.871Z,1018.50
2019-02-16T01:18:32.858Z,1018.47
2019-02-16T01:19:32.867Z,1018.51
2019-02-16T01:20:32.835Z,1018.50
2019-02-16T01:21:32.825Z,1018.50
2019-02-16T01:22:32.815Z,1018.50
2019-02-16T01:23:32.801Z,1018.42
2019-02-16T01:24:32.804Z,1018.40
2019-02-16T01:25:32.783Z,1018.40
2019-02-16T01:26:32.774Z,1018.36
2019-02-16T01:27:32.758Z,1018.33
2019-02-16T01:28:32.746Z,1018.33
2019-02-16T01:29:32.748Z,1018.31
2019-02-16T01:30:32.728Z,1018.29
2019-02-16T01:31:32.725Z,1018.29
2019-02-16T01:32:32.703Z,1018.27
2019-02-16T01:33:32.691Z,1018.25
2019-02-16T01:34:32.706Z,1018.23
2019-02-16T01:35:32.690Z,1018.20
2019-02-16T01:36:32.661Z,1018.15
2019-02-16T01:37:32.681Z,1018.17
2019-02-16T01:38:32.638Z,1018.16
2019-02-16T01:39:32.637Z,1018.13
2019-02-16T01:40:32.625Z,1018.13
2019-02-16T01:41:32.608Z,1018.17
2019-02-16T01:42:32.597Z,1018.14
2019-02-16T01:43:32.582Z,1018.08
2019-02-16T01:44:32.583Z,1018.09
2019-02-16T01:45:32.563Z,1018.04
2019-02-16T01:46:32.549Z,1018.04
2019-02-16T01:47:32.542Z,1018.03
2019-02-16T01:48:32.548Z,1018.00
2019-02-16T01:49:32.527Z,1018.01
2019-02-16T01:50:32.505Z,1017.95
2019-02-16T01:51:32.500Z,1017.93
2019-02-16T01:52:32.491Z,1018.00
2019-02-16T01:53:32.476Z,1017.97
2019-02-16T01:54:32.477Z,1017.94
2019-02-16T01:55:32.451Z,1017.93
2019-02-16T01:56:32.439Z,1017.93
2019-02-16T01:57:32.431Z,1017.93
2019-02-16T01:58:32.440Z,1017.91
2019-02-16T01:59:32.421Z,1017.90
2019-02-16T02:00:32.396Z,1017.92
2019-02-16T02:01:32.386Z,1017.89
2019-02-16T02:02:32.375Z,1017.90
2019-02-16T02:03:32.369Z,1017.93
2019-02-16T02:04:32.372Z,1017.89
2019-02-16T02:05:32.340Z,1017.92
2019-02-16T02:06:32.329Z,1017.89
2019-02-16T02:07:32.318Z,1017.93
2019-02-16T02:08:32.306Z,1017.89
2019-02-16T02:09:32.313Z,1017.86
2019-02-16T02:10:32.288Z,1017.87
2019-02-16T02:11:32.293Z,1017.86
2019-02-16T02:12:32.264Z,1017.87
2019-02-16T02:13:32.254Z,1017.89
2019-02-16T02:14:32.257Z,1017.83
2019-02-16T02:15:32.232Z,1017.85
2019-02-16T02:16:32.223Z,1017.84
2019-02-16T02:17:32.210Z,1017.83
2019-02-16T02:18:32.199Z,1017.85
2019-02-16T02:19:32.200Z,1017.82
2019-02-16T02:20:32.178Z,1017.86
2019-02-16T02:21:40.651Z,1017.85
2019-02-16T02:22:33.156Z,1017.79
2019-02-16T02:23:32.146Z,1017.79
2019-02-16T02:24:32.144Z,1017.76
2019-02-16T02:25:32.121Z,1017.79
2019-02-16T02:26:32.116Z,1017.77
2019-02-16T02:27:32.129Z,1017.77
2019-02-16T02:28:32.088Z,1017.80
2019-02-16T02:29:32.090Z,1017.80
2019-02-16T02:30:32.067Z,1017.75
2019-02-16T02:31:32.056Z,1017.79
2019-02-16T02:32:32.048Z,1017.73
2019-02-16T02:33:32.055Z,1017.75
2019-02-16T02:34:32.073Z,1017.73
2019-02-16T02:35:32.013Z,1017.72
2019-02-16T02:36:32.002Z,1017.72
2019-02-16T02:37:31.993Z,1017.72
2019-02-16T02:38:31.987Z,1017.73
2019-02-16T02:39:31.980Z,1017.71
2019-02-16T02:40:31.972Z,1017.70
2019-02-16T02:41:31.946Z,1017.69
2019-02-16T02:42:31.937Z,1017.75
2019-02-16T02:43:31.928Z,1017.71
2019-02-16T02:44:31.930Z,1017.74
2019-02-16T02:45:31.915Z,1017.72
2019-02-16T02:46:31.894Z,1017.79
2019-02-16T02:47:31.885Z,1017.78
2019-02-16T02:48:31.870Z,1017.75
2019-02-16T02:49:31.872Z,1017.77
2019-02-16T02:50:31.868Z,1017.76
2019-02-16T02:51:31.844Z,1017.67
2019-02-16T02:52:31.831Z,1017.73
2019-02-16T02:53:31.955Z,1017.74
2019-02-16T02:54:31.804Z,1017.68
2019-02-16T02:55:31.807Z,1017.67
2019-02-16T02:56:31.788Z,1017.70
2019-02-16T02:57:31.776Z,1017.69
2019-02-16T02:58:31.773Z,1017.65
2019-02-16T02:59:31.750Z,1017.69
2019-02-16T03:00:31.749Z,1017.69
2019-02-16T03:01:31.728Z,1017.64
2019-02-16T03:02:31.719Z,1017.68
2019-02-16T03:03:31.721Z,1017.62
2019-02-16T03:04:31.699Z,1017.62
2019-02-16T03:05:31.694Z,1017.62
2019-02-16T03:06:31.674Z,1017.66
2019-02-16T03:07:31.680Z,1017.62
2019-02-16T03:08:31.650Z,1017.57
2019-02-16T03:09:31.640Z,1017.60
2019-02-16T03:10:31.644Z,1017.57
2019-02-16T03:11:31.618Z,1017.59
2019-02-16T03:12:31.607Z,1017.56
2019-02-16T03:13:31.604Z,1017.56
2019-02-16T03:14:31.597Z,1017.57
2019-02-16T03:15:31.585Z,1017.58
2019-02-16T03:16:31.563Z,1017.57
2019-02-16T03:17:31.551Z,1017.54
2019-02-16T03:18:31.624Z,1017.56
2019-02-16T03:19:31.535Z,1017.59
2019-02-16T03:20:31.547Z,1017.59
2019-02-16T03:21:31.510Z,1017.53
2019-02-16T03:22:31.496Z,1017.54
2019-02-16T03:23:31.486Z,1017.52
2019-02-16T03:24:31.507Z,1017.53
2019-02-16T03:25:31.481Z,1017.49
2019-02-16T03:26:31.461Z,1017.47
2019-02-16T03:27:31.447Z,1017.45
2019-02-16T03:28:38.449Z,1017.41
2019-02-16T03:29:31.429Z,1017.43
2019-02-16T03:30:38.448Z,1017.42
2019-02-16T03:31:31.402Z,1017.37
2019-02-16T03:32:31.390Z,1017.36
2019-02-16T03:33:31.381Z,1017.36
2019-02-16T03:34:31.365Z,1017.41
2019-02-16T03:35:31.357Z,1017.43
2019-02-16T03:36:31.357Z,1017.41
2019-02-16T03:37:31.332Z,1017.43
2019-02-16T03:38:31.322Z,1017.43
2019-02-16T03:39:31.311Z,1017.44
2019-02-16T03:40:31.299Z,1017.40
2019-02-16T03:41:31.319Z,1017.35
2019-02-16T03:42:31.286Z,1017.35
2019-02-16T03:43:31.272Z,1017.35
2019-02-16T03:44:31.255Z,1017.33
2019-02-16T03:45:31.245Z,1017.31
2019-02-16T03:46:31.249Z,1017.34
2019-02-16T03:47:31.227Z,1017.38
2019-02-16T03:48:31.213Z,1017.31
2019-02-16T03:49:31.201Z,1017.30
2019-02-16T03:50:31.190Z,1017.31
2019-02-16T03:51:31.189Z,1017.29
2019-02-16T03:52:31.175Z,1017.31
2019-02-16T03:53:31.179Z,1017.32
2019-02-16T03:54:31.147Z,1017.36
2019-02-16T03:55:31.139Z,1017.37
2019-02-16T03:56:31.137Z,1017.35
2019-02-16T03:57:31.118Z,1017.35
2019-02-16T03:58:31.104Z,1017.33
2019-02-16T03:59:31.091Z,1017.35
2019-02-16T04:00:31.079Z,1017.33
2019-02-16T04:01:31.081Z,1017.29
2019-02-16T04:02:31.058Z,1017.29
2019-02-16T04:03:31.054Z,1017.27
2019-02-16T04:04:31.039Z,1017.31
2019-02-16T04:05:31.036Z,1017.30
2019-02-16T04:06:31.029Z,1017.31
2019-02-16T04:07:31.003Z,1017.33
2019-02-16T04:08:30.992Z,1017.32
2019-02-16T04:09:31.009Z,1017.31
2019-02-16T04:10:30.974Z,1017.31
2019-02-16T04:11:31.002Z,1017.32
2019-02-16T04:12:30.959Z,1017.31
2019-02-16T04:13:30.938Z,1017.32
2019-02-16T04:14:30.929Z,1017.33
2019-02-16T04:15:30.917Z,1017.36
2019-02-16T04:16:30.920Z,1017.34
2019-02-16T04:17:30.908Z,1017.35
2019-02-16T04:18:30.882Z,1017.36
2019-02-16T04:19:30.871Z,1017.39
2019-02-16T04:20:30.860Z,1017.38
2019-02-16T04:21:30.868Z,1017.38
2019-02-16T04:22:30.852Z,1017.40
2019-02-16T04:23:30.829Z,1017.38
2019-02-16T04:24:30.831Z,1017.36
2019-02-16T04:25:30.814Z,1017.34
2019-02-16T04:26:30.827Z,1017.34
2019-02-16T04:27:30.798Z,1017.34
2019-02-16T04:28:30.786Z,1017.30
2019-02-16T04:29:30.764Z,1017.29
2019-02-16T04:30:30.751Z,1017.26
2019-02-16T04:31:30.743Z,1017.27
2019-02-16T04:32:30.745Z,1017.23
2019-02-16T04:33:30.719Z,1017.25
2019-02-16T04:34:30.715Z,1017.24
2019-02-16T04:35:30.697Z,1017.19
2019-02-16T04:36:30.686Z,1017.25
2019-02-16T04:37:30.686Z,1017.21
2019-02-16T04:38:30.669Z,1017.23
2019-02-16T04:39:30.681Z,1017.22
2019-02-16T04:40:30.642Z,1017.21
2019-02-16T04:41:30.633Z,1017.24
2019-02-16T04:42:30.633Z,1017.24
2019-02-16T04:43:30.611Z,1017.20
2019-02-16T04:44:30.605Z,1017.24
2019-02-16T04:45:30.591Z,1017.25
2019-02-16T04:46:30.579Z,1017.28
2019-02-16T04:47:30.578Z,1017.29
2019-02-16T04:48:30.559Z,1017.30
2019-02-16T04:49:30.563Z,1017.30
2019-02-16T04:50:30.565Z,1017.29
2019-02-16T04:51:30.525Z,1017.31
2019-02-16T04:52:34.941Z,1017.29
2019-02-16T04:53:30.498Z,1017.31
2019-02-16T04:54:30.497Z,1017.27
2019-02-16T04:55:30.480Z,1017.31
2019-02-16T04:56:30.471Z,1017.32
2019-02-16T04:57:30.473Z,1017.25
2019-02-16T04:58:30.471Z,1017.27
2019-02-16T04:59:30.434Z,1017.21
2019-02-16T05:00:30.423Z,1017.28
2019-02-16T05:01:30.417Z,1017.27
2019-02-16T05:02:30.457Z,1017.25
2019-02-16T05:03:30.393Z,1017.23
2019-02-16T05:04:30.379Z,1017.23
2019-02-16T05:05:30.370Z,1017.20
2019-02-16T05:06:30.357Z,1017.23
2019-02-16T05:07:30.362Z,1017.24
2019-02-16T05:08:30.338Z,1017.19
2019-02-16T05:09:30.324Z,1017.18
2019-02-16T05:10:30.312Z,1017.23
2019-02-16T05:11:30.304Z,1017.19
2019-02-16T05:12:30.320Z,1017.17
2019-02-16T05:13:30.279Z,1017.17
2019-02-16T05:14:30.280Z,1017.28
2019-02-16T05:15:30.257Z,1017.20
2019-02-16T05:16:30.249Z,1017.17
2019-02-16T05:17:30.248Z,1017.19
2019-02-16T05:18:30.231Z,1017.15
2019-02-16T05:19:30.213Z,1017.17
2019-02-16T05:20:30.204Z,1017.15
2019-02-16T05:21:30.192Z,1017.12
2019-02-16T05:22:30.205Z,1017.15
2019-02-16T05:23:30.176Z,1017.17
2019-02-16T05:24:30.159Z,1017.19
2019-02-16T05:25:30.159Z,1017.17
2019-02-16T05:26:30.138Z,1017.20
2019-02-16T05:27:30.392Z,1017.26
2019-02-16T05:28:30.122Z,1017.22
2019-02-16T05:29:30.108Z,1017.24
2019-02-16T05:30:30.094Z,1017.26
2019-02-16T05:31:30.145Z,1017.23
2019-02-16T05:32:30.084Z,1017.26
2019-02-16T05:33:30.062Z,1017.21
2019-02-16T05:34:30.065Z,1017.20
2019-02-16T05:35:30.061Z,1017.18
2019-02-16T05:36:30.029Z,1017.22
2019-02-16T05:37:30.611Z,1017.16
2019-02-16T05:38:30.026Z,1017.15
2019-02-16T05:39:29.995Z,1017.17
2019-02-16T05:40:29.986Z,1017.15
2019-02-16T05:41:29.972Z,1017.19
2019-02-16T05:42:29.976Z,1017.16
2019-02-16T05:43:29.963Z,1017.12
2019-02-16T05:44:29.940Z,1017.12
2019-02-16T05:45:29.931Z,1017.10
2019-02-16T05:46:29.918Z,1017.17
2019-02-16T05:47:29.907Z,1017.16
2019-02-16T05:48:29.921Z,1017.21
2019-02-16T05:49:29.902Z,1017.23
2019-02-16T05:50:29.875Z,1017.24
2019-02-16T05:51:29.863Z,1017.18
2019-02-16T05:52:29.853Z,1017.21
2019-02-16T05:53:29.857Z,1017.15
2019-02-16T05:54:29.830Z,1017.17
2019-02-16T05:55:29.819Z,1017.18
2019-02-16T05:56:29.807Z,1017.16
2019-02-16T05:57:29.798Z,1017.15
2019-02-16T05:58:29.821Z,1017.10
2019-02-16T05:59:29.788Z,1017.11
2019-02-16T06:00:29.782Z,1017.13
2019-02-16T06:01:29.754Z,1017.04
2019-02-16T06:02:29.742Z,1017.10
2019-02-16T06:03:29.745Z,1017.12
2019-02-16T06:04:29.738Z,1017.09
2019-02-16T06:05:29.710Z,1017.12
2019-02-16T06:06:29.698Z,1017.13
2019-02-16T06:07:29.692Z,1017.13
2019-02-16T06:08:29.688Z,1017.08
2019-02-16T06:09:29.671Z,1017.08
2019-02-16T06:10:29.655Z,1017.11
2019-02-16T06:11:29.656Z,1017.11
2019-02-16T06:12:29.635Z,1017.11
2019-02-16T06:13:29.637Z,1017.05
2019-02-16T06:14:29.610Z,1017.06
2019-02-16T06:15:29.599Z,1017.02
2019-02-16T06:16:29.589Z,1017.02
2019-02-16T06:17:29.582Z,1016.99
2019-02-16T06:18:29.583Z,1017.05
2019-02-16T06:19:29.555Z,1017.04
2019-02-16T06:20:29.546Z,1017.07
2019-02-16T06:21:29.552Z,1017.11
2019-02-16T06:22:29.523Z,1017.07
2019-02-16T06:23:29.526Z,1017.12
2019-02-16T06:24:29.504Z,1017.10
2019-02-16T06:25:29.492Z,1017.14
2019-02-16T06:26:29.480Z,1017.15
2019-02-16T06:27:29.468Z,1017.16
2019-02-16T06:28:29.478Z,1017.18
2019-02-16T06:29:29.448Z,1017.16
2019-02-16T06:30:29.435Z,1017.16
2019-02-16T06:31:29.425Z,1017.16
2019-02-16T06:32:29.416Z,1017.17
2019-02-16T06:33:29.416Z,1017.16
2019-02-16T06:34:29.396Z,1017.15
2019-02-16T06:35:29.386Z,1017.14
2019-02-16T06:36:29.371Z,1017.18
2019-02-16T06:37:29.361Z,1017.21
2019-02-16T06:38:29.421Z,1017.27
2019-02-16T06:39:29.336Z,1017.26
2019-02-16T06:40:29.326Z,1017.34
2019-02-16T06:41:29.317Z,1017.38
2019-02-16T06:42:29.306Z,1017.41
2019-02-16T06:43:29.364Z,1017.41
2019-02-16T06:44:29.308Z,1017.40
2019-02-16T06:45:29.271Z,1017.43
2019-02-16T06:46:29.263Z,1017.44
2019-02-16T06:47:29.264Z,1017.42
2019-02-16T06:48:29.255Z,1017.41
2019-02-16T06:49:29.228Z,1017.42
2019-02-16T06:50:36.768Z,1017.41
2019-02-16T06:51:30.205Z,1017.41
2019-02-16T06:52:29.210Z,1017.44
2019-02-16T06:53:29.212Z,1017.44
2019-02-16T06:54:29.173Z,1017.41
2019-02-16T06:55:29.162Z,1017.39
2019-02-16T06:56:29.192Z,1017.42
2019-02-16T06:57:29.150Z,1017.41
2019-02-16T06:58:29.286Z,1017.41
2019-02-16T06:59:29.119Z,1017.43
2019-02-16T07:00:29.110Z,1017.45
2019-02-16T07:01:29.096Z,1017.41
2019-02-16T07:02:29.086Z,1017.41
2019-02-16T07:03:29.110Z,1017.39
2019-02-16T07:04:29.063Z,1017.41
2019-02-16T07:05:29.052Z,1017.41
2019-02-16T07:06:29.040Z,1017.40
2019-02-16T07:07:29.047Z,1017.41
2019-02-16T07:08:29.025Z,1017.45
2019-02-16T07:09:29.026Z,1017.47
2019-02-16T07:10:28.999Z,1017.45
2019-02-16T07:11:28.989Z,1017.47
2019-02-16T07:12:28.977Z,1017.52
2019-02-16T07:13:28.965Z,1017.50
2019-02-16T07:14:28.990Z,1017.50
2019-02-16T07:15:28.945Z,1017.55
2019-02-16T07:16:28.968Z,1017.48
2019-02-16T07:17:28.981Z,1017.50
2019-02-16T07:18:28.927Z,1017.54
2019-02-16T07:19:28.914Z,1017.52
2019-02-16T07:20:29.004Z,1017.50
2019-02-16T07:21:28.877Z,1017.51
2019-02-16T07:22:28.867Z,1017.51
2019-02-16T07:23:28.856Z,1017.53
2019-02-16T07:24:28.857Z,1017.51
2019-02-16T07:25:28.832Z,1017.54
2019-02-16T07:26:28.825Z,1017.57
2019-02-16T07:27:28.815Z,1017.58
2019-02-16T07:28:28.799Z,1017.56
2019-02-16T07:29:28.808Z,1017.60
2019-02-16T07:30:28.795Z,1017.63
2019-02-16T07:31:28.772Z,1017.64
2019-02-16T07:32:28.776Z,1017.66
2019-02-16T07:33:28.747Z,1017.63
2019-02-16T07:34:28.747Z,1017.64
2019-02-16T07:35:28.724Z,1017.67
2019-02-16T07:36:28.711Z,1017.59
2019-02-16T07:37:28.708Z,1017.63
2019-02-16T07:38:28.697Z,1017.64
2019-02-16T07:39:28.693Z,1017.64
2019-02-16T07:40:28.690Z,1017.62
2019-02-16T07:41:28.663Z,1017.66
2019-02-16T07:42:28.645Z,1017.63
2019-02-16T07:43:35.649Z,1017.61
2019-02-16T07:44:28.636Z,1017.67
2019-02-16T07:45:28.614Z,1017.65
2019-02-16T07:46:28.602Z,1017.68
2019-02-16T07:47:28.590Z,1017.70
2019-02-16T07:48:28.580Z,1017.70
2019-02-16T07:49:28.580Z,1017.70
2019-02-16T07:50:28.569Z,1017.70
2019-02-16T07:51:28.551Z,1017.69
2019-02-16T07:52:28.541Z,1017.68
2019-02-16T07:53:31.274Z,1017.69
2019-02-16T07:54:28.544Z,1017.68
2019-02-16T07:55:28.514Z,1017.71
2019-02-16T07:56:28.493Z,1017.70
2019-02-16T07:57:28.490Z,1017.70
2019-02-16T07:58:28.473Z,1017.67
2019-02-16T07:59:28.459Z,1017.64
2019-02-16T08:00:28.464Z,1017.67
2019-02-16T08:01:28.439Z,1017.70
2019-02-16T08:02:28.430Z,1017.65
2019-02-16T08:03:28.432Z,1017.72
2019-02-16T08:04:28.408Z,1017.70
2019-02-16T08:05:28.405Z,1017.64
2019-02-16T08:06:28.385Z,1017.72
2019-02-16T08:07:28.372Z,1017.72
2019-02-16T08:08:28.362Z,1017.69
2019-02-16T08:09:28.352Z,1017.75
2019-02-16T08:10:28.351Z,1017.72
2019-02-16T08:11:28.328Z,1017.76
2019-02-16T08:12:28.320Z,1017.77
2019-02-16T08:13:28.308Z,1017.78
2019-02-16T08:14:28.296Z,1017.75
2019-02-16T08:15:28.296Z,1017.81
2019-02-16T08:16:28.290Z,1017.78
2019-02-16T08:17:28.270Z,1017.77
2019-02-16T08:18:28.252Z,1017.77
2019-02-16T08:19:28.240Z,1017.77
2019-02-16T08:20:28.253Z,1017.71
2019-02-16T08:21:28.218Z,1017.71
2019-02-16T08:22:28.270Z,1017.74
2019-02-16T08:23:28.197Z,1017.78
2019-02-16T08:24:28.188Z,1017.76
2019-02-16T08:25:28.188Z,1017.80
2019-02-16T08:26:28.183Z,1017.78
2019-02-16T08:27:28.153Z,1017.77
2019-02-16T08:28:28.141Z,1017.74
2019-02-16T08:29:28.131Z,1017.75
2019-02-16T08:30:28.132Z,1017.76
2019-02-16T08:31:28.118Z,1017.77
2019-02-16T08:32:28.098Z,1017.79
2019-02-16T08:33:28.088Z,1017.83
2019-02-16T08:34:28.078Z,1017.81
2019-02-16T08:35:28.081Z,1017.87
2019-02-16T08:36:28.055Z,1017.87
2019-02-16T08:37:28.043Z,1017.88
2019-02-16T08:38:28.047Z,1017.85
2019-02-16T08:39:28.023Z,1017.84
2019-02-16T08:40:28.033Z,1017.87
2019-02-16T08:41:28.000Z,1017.83
2019-02-16T08:42:27.989Z,1017.80
2019-02-16T08:43:27.985Z,1017.79
2019-02-16T08:44:27.966Z,1017.78
2019-02-16T08:45:27.970Z,1017.79
2019-02-16T08:46:27.945Z,1017.77
2019-02-16T08:47:27.939Z,1017.75
2019-02-16T08:48:27.923Z,1017.78
2019-02-16T08:49:27.925Z,1017.76
2019-02-16T08:50:29.519Z,1017.83
2019-02-16T08:51:27.888Z,1017.80
2019-02-16T08:52:27.879Z,1017.77
2019-02-16T08:53:27.867Z,1017.76
2019-02-16T08:54:27.856Z,1017.78
2019-02-16T08:55:27.879Z,1017.78
2019-02-16T08:56:27.842Z,1017.78
2019-02-16T08:57:27.823Z,1017.76
2019-02-16T08:58:27.812Z,1017.79
2019-02-16T08:59:27.884Z,1017.78
2019-02-16T09:00:27.790Z,1017.73
2019-02-16T09:01:27.791Z,1017.77
2019-02-16T09:02:27.774Z,1017.76
2019-02-16T09:03:27.761Z,1017.74
2019-02-16T09:04:27.752Z,1017.74
2019-02-16T09:05:27.740Z,1017.70
2019-02-16T09:06:27.737Z,1017.72
2019-02-16T09:07:27.714Z,1017.76
2019-02-16T09:08:27.704Z,1017.71
2019-02-16T09:09:27.693Z,1017.70
2019-02-16T09:10:27.684Z,1017.67
2019-02-16T09:11:27.681Z,1017.62
2019-02-16T09:12:27.670Z,1017.59
2019-02-16T09:13:27.647Z,1017.59
2019-02-16T09:14:27.640Z,1017.54
2019-02-16T09:15:27.630Z,1017.55
2019-02-16T09:16:27.626Z,1017.57
2019-02-16T09:17:27.606Z,1017.50
2019-02-16T09:18:27.593Z,1017.51
2019-02-16T09:19:27.584Z,1017.50
2019-02-16T09:20:27.628Z,1017.48
2019-02-16T09:21:27.578Z,1017.55
2019-02-16T09:22:27.550Z,1017.55
2019-02-16T09:23:27.538Z,1017.57
2019-02-16T09:24:27.527Z,1017.62
2019-02-16T09:25:27.519Z,1017.58
2019-02-16T09:26:27.521Z,1017.53
2019-02-16T09:27:27.499Z,1017.60
2019-02-16T09:28:27.506Z,1017.60
2019-02-16T09:29:27.471Z,1017.60
2019-02-16T09:30:27.461Z,1017.57
2019-02-16T09:31:27.463Z,1017.63
2019-02-16T09:32:27.439Z,1017.60
2019-02-16T09:33:27.447Z,1017.62
2019-02-16T09:34:27.416Z,1017.61
2019-02-16T09:35:27.420Z,1017.53
2019-02-16T09:36:27.413Z,1017.60
2019-02-16T09:37:28.832Z,1017.59
2019-02-16T09:38:27.374Z,1017.57
2019-02-16T09:39:27.377Z,1017.58
2019-02-16T09:40:27.351Z,1017.56
2019-02-16T09:41:27.407Z,1017.57
2019-02-16T09:42:27.330Z,1017.60
2019-02-16T09:43:27.322Z,1017.61
2019-02-16T09:44:27.311Z,1017.59
2019-02-16T09:45:27.297Z,1017.63
2019-02-16T09:46:27.298Z,1017.62
2019-02-16T09:47:27.275Z,1017.62
2019-02-16T09:48:27.265Z,1017.63
2019-02-16T09:49:27.253Z,1017.60
2019-02-16T09:50:28.225Z,1017.63
2019-02-16T09:51:27.259Z,1017.58
2019-02-16T09:52:27.220Z,1017.60
2019-02-16T09:53:27.210Z,1017.62
2019-02-16T09:54:27.212Z,1017.60
2019-02-16T09:55:27.187Z,1017.59
2019-02-16T09:56:27.193Z,1017.58
2019-02-16T09:57:27.164Z,1017.61
2019-02-16T09:58:27.170Z,1017.59
2019-02-16T09:59:27.142Z,1017.57
2019-02-16T10:00:27.133Z,1017.58
2019-02-16T10:01:27.133Z,1017.63
2019-02-16T10:02:27.109Z,1017.63
2019-02-16T10:03:27.100Z,1017.59
2019-02-16T10:04:27.087Z,1017.65
2019-02-16T10:05:27.076Z,1017.64
2019-02-16T10:06:27.104Z,1017.66
2019-02-16T10:07:27.059Z,1017.62
2019-02-16T10:08:27.063Z,1017.68
2019-02-16T10:09:27.032Z,1017.66
2019-02-16T10:10:27.022Z,1017.67
2019-02-16T10:11:27.011Z,1017.66
2019-02-16T10:12:27.011Z,1017.68
2019-02-16T10:13:27.001Z,1017.63
2019-02-16T10:14:26.981Z,1017.66
2019-02-16T10:15:26.967Z,1017.63
2019-02-16T10:16:26.955Z,1017.64
2019-02-16T10:17:26.959Z,1017.62
2019-02-16T10:18:26.935Z,1017.69
2019-02-16T10:19:26.936Z,1017.69
2019-02-16T10:20:26.926Z,1017.73
2019-02-16T10:21:26.914Z,1017.72
2019-02-16T10:22:26.902Z,1017.74
2019-02-16T10:23:26.879Z,1017.72
2019-02-16T10:24:26.870Z,1017.75
2019-02-16T10:25:26.873Z,1017.78
2019-02-16T10:26:26.845Z,1017.78
2019-02-16T10:27:26.846Z,1017.81
2019-02-16T10:28:26.826Z,1017.82
2019-02-16T10:29:26.821Z,1017.83
2019-02-16T10:30:26.810Z,1017.81
2019-02-16T10:31:26.808Z,1017.82
2019-02-16T10:32:26.792Z,1017.79
2019-02-16T10:33:26.769Z,1017.82
2019-02-16T10:34:26.757Z,1017.80
2019-02-16T10:35:26.746Z,1017.75
2019-02-16T10:36:26.747Z,1017.73
2019-02-16T10:37:26.747Z,1017.72
2019-02-16T10:38:26.712Z,1017.74
2019-02-16T10:39:26.705Z,1017.74
2019-02-16T10:40:26.692Z,1017.71
2019-02-16T10:41:26.683Z,1017.71
2019-02-16T10:42:26.685Z,1017.75
2019-02-16T10:43:26.658Z,1017.75
2019-02-16T10:44:26.659Z,1017.71
2019-02-16T10:45:26.637Z,1017.71
2019-02-16T10:46:26.652Z,1017.75
2019-02-16T10:47:26.962Z,1017.77
2019-02-16T10:48:26.606Z,1017.76
2019-02-16T10:49:26.591Z,1017.72
2019-02-16T10:50:26.579Z,1017.76
2019-02-16T10:51:26.571Z,1017.74
2019-02-16T10:52:26.571Z,1017.72
2019-02-16T10:53:26.547Z,1017.70
2019-02-16T10:54:29.067Z,1017.70
2019-02-16T10:55:26.530Z,1017.74
2019-02-16T10:56:26.514Z,1017.71
2019-02-16T10:57:26.516Z,1017.70
2019-02-16T10:58:26.492Z,1017.69
2019-02-16T10:59:26.487Z,1017.70
2019-02-16T11:00:26.469Z,1017.66
2019-02-16T11:01:26.463Z,1017.65
2019-02-16T11:02:26.459Z,1017.62
2019-02-16T11:03:26.439Z,1017.63
2019-02-16T11:04:26.426Z,1017.59
2019-02-16T11:05:26.416Z,1017.54
2019-02-16T11:06:26.405Z,1017.59
2019-02-16T11:07:26.425Z,1017.56
2019-02-16T11:08:26.385Z,1017.59
2019-02-16T11:09:26.404Z,1017.56
2019-02-16T11:10:26.361Z,1017.59
2019-02-16T11:11:26.349Z,1017.58
2019-02-16T11:12:26.395Z,1017.55
2019-02-16T11:13:26.327Z,1017.54
2019-02-16T11:14:26.317Z,1017.55
2019-02-16T11:15:26.308Z,1017.52
2019-02-16T11:16:26.297Z,1017.53
2019-02-16T11:17:26.303Z,1017.52
2019-02-16T11:18:26.287Z,1017.53
2019-02-16T11:19:26.261Z,1017.51
2019-02-16T11:20:26.250Z,1017.54
2019-02-16T11:21:26.238Z,1017.53
2019-02-16T11:22:26.230Z,1017.57
2019-02-16T11:23:26.229Z,1017.57
2019-02-16T11:24:26.216Z,1017.54
2019-02-16T11:25:26.197Z,1017.52
2019-02-16T11:26:26.187Z,1017.56
2019-02-16T11:27:26.173Z,1017.57
2019-02-16T11:28:26.174Z,1017.55
2019-02-16T11:29:26.165Z,1017.55
2019-02-16T11:30:26.150Z,1017.55
2019-02-16T11:31:26.127Z,1017.50
2019-02-16T11:32:26.128Z,1017.49
2019-02-16T11:33:26.117Z,1017.50
2019-02-16T11:34:26.097Z,1017.49
2019-02-16T11:35:26.084Z,1017.47
2019-02-16T11:36:26.073Z,1017.51
2019-02-16T11:37:26.063Z,1017.53
2019-02-16T11:38:26.074Z,1017.50
2019-02-16T11:39:26.039Z,1017.49
2019-02-16T11:40:26.029Z,1017.51
2019-02-16T11:41:26.063Z,1017.52
2019-02-16T11:42:26.006Z,1017.47
2019-02-16T11:43:33.022Z,1017.48
2019-02-16T11:44:32.997Z,1017.50
2019-02-16T11:45:25.979Z,1017.52
2019-02-16T11:46:25.963Z,1017.53
2019-02-16T11:47:25.952Z,1017.47
2019-02-16T11:48:25.956Z,1017.48
2019-02-16T11:49:25.930Z,1017.43
2019-02-16T11:50:25.921Z,1017.47
2019-02-16T11:51:25.910Z,1017.48
2019-02-16T11:52:25.896Z,1017.49
2019-02-16T11:53:25.918Z,1017.49
2019-02-16T11:54:25.875Z,1017.48
2019-02-16T11:55:25.862Z,1017.46
2019-02-16T11:56:25.856Z,1017.44
2019-02-16T11:57:25.842Z,1017.50
2019-02-16T11:58:25.842Z,1017.43
2019-02-16T11:59:25.823Z,1017.42
2019-02-16T12:00:25.809Z,1017.40
2019-02-16T12:01:25.796Z,1017.40
2019-02-16T12:02:25.790Z,1017.40
2019-02-16T12:03:25.801Z,1017.39
2019-02-16T12:04:25.782Z,1017.39
2019-02-16T12:05:25.753Z,1017.43